Hovedside
METAR-TAF:

METAR-TAF

Lufthavner :

Umeå, Sverige

Umeå lufthavn

breddegrad: 63-48N, lengdegrad: 020-17E, høyde over havet: 7 m

Gjeldene værobservasjon

Denne rapporten ble laget for 1 time og 15 minutter siden, klokken 09:50 UTC
Vind 6 kt fra Nord, skiftende mellom Nordvest og Nord-nordøst
Temperatur 4°C
Luftfuktighet 56%
Trykk 1006 hPa
Sikt 10 km eller mer
Brutte skyer i en høyde av 4000 ft

METAR: ESNU 270950Z 35006KT 310V020 9999 BKN040 04/M04 Q1006 R14/09//95

Tid: 13:05 (11:05 UTC)

Varsel

Denne rapporten ble laget for 2 timer og 35 minutter siden, klokken 08:30 UTC
Varsel gyldig fra 27. klokken 09 UTC til 27. klokken 18 UTC
Vind 10 kt fra Nord-nordvest
Sikt 10 km eller mer
Spredte skyer i en høyde av 3500 ft
Sannsynlighet 40%
fra 27. klokken 11 UTC til 27. klokken 16 UTC
Sikt: 4000 m
lett snø

TAF: ESNU 270830Z 2709/2718 33010KT 9999 SCT035 PROB40 2711/2716 4000 -SN

Værobservasjoner og værvarsel for over 4000 flyplasser (METAR- og TAF-rapporter).

Tilgjengelige stasjoner er representert av de røde og gule prikkene på kartet.

Hold musepekeren over prikken for å se navnet på stasjonen.

Klikk så for å se værobservasjoner og -varsler.

For å forandre kartet kan du klikke på den grønne knappen med svart kryss for å zoome inn, på den grønne knappen med strek for å zoome ut, eller på de grønne pilene for å se tilstøtende kart.


METAR-TAF: